KMY weather

Public forecast

Using degrees Fahrenheit for public forecast. Weather courtesy of forecast.io.

Closest aviation weather report (METAR) to Moser Bay Seaplane Base

Closest report is Akhiok Airport, 5.4 nm (9.9 km) SSW. Retrieved 2020/08/12 11:56 UTC (56 minutes ago):

PAKH 121156Z AUTO OVC027 A2996 RMK AO2 SLPNO 58003 PWINO FZRANO

Closest aviation forecast (TAF) to Moser Bay Seaplane Base

Closest forecast is Kodiak Airport, 68.9 nm (127.6 km) NE. Retrieved 2020/08/12 12:42 UTC (10 minutes ago):

TAF PADQ 121140Z 1212/1312 VRB06KT P6SM BKN150